ハリファックス の空港の天気 - METARとTAF

ハリファックス国際空港 ( CYHZ / YHZ ) - カナダ ノバスコシア州ハリファックス
飛行場実況気象(Metar)
観測時間08/05 18:00 ADT (08/05 21:00 UTC)
風向・風速南南西 5m/s 瞬間風速9m/s
視程10km以上
天気現象
少しの雲 雲底高度 1220m
全天の8割程度の雲 雲底高度 7320m
気温26℃
湿度65%
気圧1016hPa
METARCYHZ 052100Z 20010G17KT 15SM FEW040 BKN240 26/19 A3000 RMK CU1CI6 SLP160 DENSITY ALT 1800FT
過去の天気等 Google飛行場航空写真 Wunderground天気予報

過去48時間のMETAR

飛行場予報(TAF)
発表時間: 8/05 17:38 ADT (8/05 20:38 UTC)
予報対象時間: 5日18時 ADT ~ 6日15時 ADT
風向・風速南南西 6m/s 瞬間風速 11m/s
視程10km以上
少しの雲 雲底高度 1220m
全天の8割程度の雲 雲底高度 6710m
5日19時 ADT ~ 5日21時 ADT に徐々に
風向・風速南西 6m/s
6日3時 ADT から
風向・風速南南西 4m/s
視程10km以上
全天の4割程度の雲 雲底高度 90m
6日3時 ADT から 確率 30% で
視程8850m
天気現象もや
全天の8割程度の雲 雲底高度 90m
6日10時 ADT から
風向・風速南西 4m/s
視程10km以上
全天の8割程度の雲 雲底高度 460m
6日13時 ADT から
風向・風速西南西 6m/s 瞬間風速 11m/s
視程10km以上
全天の4割程度の雲 雲底高度 1220m
TAF CYHZ 052038Z 0521/0618 20012G22KT P6SM FEW040 BKN220
BECMG 0522/0524 22012KT
FM060600 20008KT P6SM SCT003
PROB30 0606/0613 11/2SM BR BKN003
FM061300 22008KT P6SM BKN015
FM061600 24012G22KT P6SM SCT040 RMK NXT FCST BY 060000Z